sensor_id;sensor_type;location;lat;lon;timestamp;P1;durP1;ratioP1;P2;durP2;ratioP2
66485;SDS011;53303;47.476;8.084;2024-03-25T00:01:39;4.18;;;1.10;;
66485;SDS011;53303;47.476;8.084;2024-03-25T00:04:04;4.43;;;1.13;;
66485;SDS011;53303;47.476;8.084;2024-03-25T00:06:29;6.05;;;1.00;;
66485;SDS011;53303;47.476;8.084;2024-03-25T00:08:58;5.85;;;1.00;;
66485;SDS011;53303;47.476;8.084;2024-03-25T00:11:25;3.22;;;0.85;;
66485;SDS011;53303;47.476;8.084;2024-03-25T00:13:50;4.80;;;1.15;;
66485;SDS011;53303;47.476;8.084;2024-03-25T00:16:16;1.83;;;0.70;;
66485;SDS011;53303;47.476;8.084;2024-03-25T00:18:41;3.67;;;1.00;;
66485;SDS011;53303;47.476;8.084;2024-03-25T00:21:07;4.45;;;1.10;;
66485;SDS011;53303;47.476;8.084;2024-03-25T00:23:32;7.00;;;1.02;;
66485;SDS011;53303;47.476;8.084;2024-03-25T00:25:57;6.57;;;1.13;;
66485;SDS011;53303;47.476;8.084;2024-03-25T00:28:25;7.03;;;0.98;;
66485;SDS011;53303;47.476;8.084;2024-03-25T00:30:53;3.65;;;1.15;;
66485;SDS011;53303;47.476;8.084;2024-03-25T00:33:21;5.20;;;0.77;;
66485;SDS011;53303;47.476;8.084;2024-03-25T00:35:49;3.55;;;0.73;;
66485;SDS011;53303;47.476;8.084;2024-03-25T00:38:15;4.18;;;0.80;;
66485;SDS011;53303;47.476;8.084;2024-03-25T00:40:40;3.60;;;0.80;;
66485;SDS011;53303;47.476;8.084;2024-03-25T00:43:06;3.75;;;0.95;;
66485;SDS011;53303;47.476;8.084;2024-03-25T00:45:31;3.78;;;0.70;;
66485;SDS011;53303;47.476;8.084;2024-03-25T00:47:57;5.25;;;1.10;;
66485;SDS011;53303;47.476;8.084;2024-03-25T00:50:24;5.40;;;1.00;;
66485;SDS011;53303;47.476;8.084;2024-03-25T00:52:50;6.43;;;1.10;;
66485;SDS011;53303;47.476;8.084;2024-03-25T00:55:15;2.70;;;0.80;;
66485;SDS011;53303;47.476;8.084;2024-03-25T00:57:40;4.30;;;1.10;;
66485;SDS011;53303;47.476;8.084;2024-03-25T01:00:11;4.68;;;1.02;;
66485;SDS011;53303;47.476;8.084;2024-03-25T01:02:40;3.75;;;0.80;;
66485;SDS011;53303;47.476;8.084;2024-03-25T01:05:06;4.13;;;1.20;;
66485;SDS011;53303;47.476;8.084;2024-03-25T01:07:32;2.00;;;0.80;;
66485;SDS011;53303;47.476;8.084;2024-03-25T01:09:57;2.15;;;0.90;;
66485;SDS011;53303;47.476;8.084;2024-03-25T01:12:23;4.22;;;0.93;;
66485;SDS011;53303;47.476;8.084;2024-03-25T01:14:49;4.15;;;1.00;;
66485;SDS011;53303;47.476;8.084;2024-03-25T01:17:14;3.72;;;0.80;;
66485;SDS011;53303;47.476;8.084;2024-03-25T01:19:40;4.30;;;1.23;;
66485;SDS011;53303;47.476;8.084;2024-03-25T01:22:05;2.53;;;1.02;;
66485;SDS011;53303;47.476;8.084;2024-03-25T01:24:31;3.25;;;0.80;;
66485;SDS011;53303;47.476;8.084;2024-03-25T01:26:56;1.83;;;0.55;;
66485;SDS011;53303;47.476;8.084;2024-03-25T01:29:21;3.90;;;0.88;;
66485;SDS011;53303;47.476;8.084;2024-03-25T01:31:47;6.07;;;1.20;;
66485;SDS011;53303;47.476;8.084;2024-03-25T01:34:12;4.50;;;0.80;;
66485;SDS011;53303;47.476;8.084;2024-03-25T01:36:38;4.53;;;1.20;;
66485;SDS011;53303;47.476;8.084;2024-03-25T01:39:04;4.35;;;0.82;;
66485;SDS011;53303;47.476;8.084;2024-03-25T01:41:32;4.07;;;1.23;;
66485;SDS011;53303;47.476;8.084;2024-03-25T01:44:05;4.32;;;1.08;;
66485;SDS011;53303;47.476;8.084;2024-03-25T01:46:30;3.08;;;0.90;;
66485;SDS011;53303;47.476;8.084;2024-03-25T01:48:56;2.70;;;0.60;;
66485;SDS011;53303;47.476;8.084;2024-03-25T01:51:23;3.92;;;1.10;;
66485;SDS011;53303;47.476;8.084;2024-03-25T01:53:52;5.15;;;1.00;;
66485;SDS011;53303;47.476;8.084;2024-03-25T01:56:19;3.28;;;0.88;;
66485;SDS011;53303;47.476;8.084;2024-03-25T01:58:48;2.17;;;0.80;;
66485;SDS011;53303;47.476;8.084;2024-03-25T02:01:14;4.55;;;0.73;;
66485;SDS011;53303;47.476;8.084;2024-03-25T02:03:40;3.15;;;0.88;;
66485;SDS011;53303;47.476;8.084;2024-03-25T02:06:09;4.10;;;0.70;;
66485;SDS011;53303;47.476;8.084;2024-03-25T02:08:38;3.25;;;1.10;;
66485;SDS011;53303;47.476;8.084;2024-03-25T02:11:06;5.85;;;0.90;;
66485;SDS011;53303;47.476;8.084;2024-03-25T02:13:32;3.08;;;0.80;;
66485;SDS011;53303;47.476;8.084;2024-03-25T02:15:57;3.10;;;1.10;;
66485;SDS011;53303;47.476;8.084;2024-03-25T02:18:23;4.18;;;1.13;;
66485;SDS011;53303;47.476;8.084;2024-03-25T02:20:48;4.38;;;1.02;;
66485;SDS011;53303;47.476;8.084;2024-03-25T02:23:14;3.92;;;1.00;;
66485;SDS011;53303;47.476;8.084;2024-03-25T02:25:40;3.20;;;0.68;;
66485;SDS011;53303;47.476;8.084;2024-03-25T02:28:10;3.42;;;1.10;;
66485;SDS011;53303;47.476;8.084;2024-03-25T02:30:38;2.92;;;0.77;;
66485;SDS011;53303;47.476;8.084;2024-03-25T02:33:08;4.75;;;1.02;;
66485;SDS011;53303;47.476;8.084;2024-03-25T02:35:34;4.65;;;1.00;;
66485;SDS011;53303;47.476;8.084;2024-03-25T02:38:00;2.92;;;1.05;;
66485;SDS011;53303;47.476;8.084;2024-03-25T02:40:26;2.58;;;0.90;;
66485;SDS011;53303;47.476;8.084;2024-03-25T02:42:52;2.15;;;0.80;;
66485;SDS011;53303;47.476;8.084;2024-03-25T02:45:17;2.33;;;0.90;;
66485;SDS011;53303;47.476;8.084;2024-03-25T02:47:43;3.42;;;1.00;;
66485;SDS011;53303;47.476;8.084;2024-03-25T02:50:08;4.20;;;0.80;;
66485;SDS011;53303;47.476;8.084;2024-03-25T02:52:34;7.38;;;1.00;;
66485;SDS011;53303;47.476;8.084;2024-03-25T02:54:59;1.63;;;0.70;;
66485;SDS011;53303;47.476;8.084;2024-03-25T02:57:25;3.85;;;0.85;;
66485;SDS011;53303;47.476;8.084;2024-03-25T02:59:52;4.50;;;0.90;;
66485;SDS011;53303;47.476;8.084;2024-03-25T03:02:20;2.92;;;0.70;;
66485;SDS011;53303;47.476;8.084;2024-03-25T03:04:45;3.22;;;0.88;;
66485;SDS011;53303;47.476;8.084;2024-03-25T03:07:11;3.20;;;0.70;;
66485;SDS011;53303;47.476;8.084;2024-03-25T03:09:36;4.75;;;0.70;;
66485;SDS011;53303;47.476;8.084;2024-03-25T03:12:02;3.05;;;0.80;;
66485;SDS011;53303;47.476;8.084;2024-03-25T03:14:28;3.05;;;1.02;;
66485;SDS011;53303;47.476;8.084;2024-03-25T03:16:54;4.72;;;1.10;;
66485;SDS011;53303;47.476;8.084;2024-03-25T03:19:22;2.47;;;1.17;;
66485;SDS011;53303;47.476;8.084;2024-03-25T03:21:48;4.78;;;1.00;;
66485;SDS011;53303;47.476;8.084;2024-03-25T03:24:14;3.13;;;0.70;;
66485;SDS011;53303;47.476;8.084;2024-03-25T03:26:39;4.28;;;1.10;;
66485;SDS011;53303;47.476;8.084;2024-03-25T03:29:04;1.92;;;0.80;;
66485;SDS011;53303;47.476;8.084;2024-03-25T03:31:30;3.97;;;1.00;;
66485;SDS011;53303;47.476;8.084;2024-03-25T03:33:55;5.30;;;0.90;;
66485;SDS011;53303;47.476;8.084;2024-03-25T03:36:21;2.25;;;0.90;;
66485;SDS011;53303;47.476;8.084;2024-03-25T03:38:49;2.00;;;0.90;;
66485;SDS011;53303;47.476;8.084;2024-03-25T03:41:15;2.63;;;0.68;;
66485;SDS011;53303;47.476;8.084;2024-03-25T03:43:41;2.88;;;0.50;;
66485;SDS011;53303;47.476;8.084;2024-03-25T03:46:06;1.38;;;0.60;;
66485;SDS011;53303;47.476;8.084;2024-03-25T03:48:31;3.53;;;1.00;;
66485;SDS011;53303;47.476;8.084;2024-03-25T03:50:57;2.90;;;0.93;;
66485;SDS011;53303;47.476;8.084;2024-03-25T03:53:22;3.28;;;1.00;;
66485;SDS011;53303;47.476;8.084;2024-03-25T03:55:54;2.15;;;0.50;;
66485;SDS011;53303;47.476;8.084;2024-03-25T03:58:23;1.80;;;0.60;;
66485;SDS011;53303;47.476;8.084;2024-03-25T04:00:51;5.25;;;0.80;;
66485;SDS011;53303;47.476;8.084;2024-03-25T04:03:19;4.20;;;0.90;;
66485;SDS011;53303;47.476;8.084;2024-03-25T04:05:45;3.72;;;0.90;;
66485;SDS011;53303;47.476;8.084;2024-03-25T04:08:12;3.35;;;0.90;;
66485;SDS011;53303;47.476;8.084;2024-03-25T04:10:38;3.17;;;1.00;;
66485;SDS011;53303;47.476;8.084;2024-03-25T04:13:06;5.97;;;1.17;;
66485;SDS011;53303;47.476;8.084;2024-03-25T04:15:33;3.15;;;1.17;;
66485;SDS011;53303;47.476;8.084;2024-03-25T04:20:37;3.58;;;0.88;;
66485;SDS011;53303;47.476;8.084;2024-03-25T04:23:06;4.03;;;0.80;;
66485;SDS011;53303;47.476;8.084;2024-03-25T04:25:32;6.13;;;1.08;;
66485;SDS011;53303;47.476;8.084;2024-03-25T04:27:58;1.85;;;1.02;;
66485;SDS011;53303;47.476;8.084;2024-03-25T04:30:24;3.08;;;0.73;;
66485;SDS011;53303;47.476;8.084;2024-03-25T04:32:49;3.83;;;0.82;;
66485;SDS011;53303;47.476;8.084;2024-03-25T04:35:17;3.55;;;0.70;;
66485;SDS011;53303;47.476;8.084;2024-03-25T04:37:42;3.00;;;1.02;;
66485;SDS011;53303;47.476;8.084;2024-03-25T04:40:08;3.30;;;0.93;;
66485;SDS011;53303;47.476;8.084;2024-03-25T04:42:34;3.72;;;1.02;;
66485;SDS011;53303;47.476;8.084;2024-03-25T04:45:01;9.05;;;1.55;;
66485;SDS011;53303;47.476;8.084;2024-03-25T04:47:29;6.25;;;1.35;;
66485;SDS011;53303;47.476;8.084;2024-03-25T04:49:56;3.17;;;0.85;;
66485;SDS011;53303;47.476;8.084;2024-03-25T04:52:22;4.28;;;0.50;;
66485;SDS011;53303;47.476;8.084;2024-03-25T04:54:50;4.63;;;1.00;;
66485;SDS011;53303;47.476;8.084;2024-03-25T04:57:16;8.43;;;1.15;;
66485;SDS011;53303;47.476;8.084;2024-03-25T04:59:41;21.23;;;1.75;;
66485;SDS011;53303;47.476;8.084;2024-03-25T05:02:07;11.30;;;1.75;;
66485;SDS011;53303;47.476;8.084;2024-03-25T05:04:33;8.13;;;1.42;;
66485;SDS011;53303;47.476;8.084;2024-03-25T05:06:58;8.80;;;1.48;;
66485;SDS011;53303;47.476;8.084;2024-03-25T05:09:26;19.65;;;2.47;;
66485;SDS011;53303;47.476;8.084;2024-03-25T05:11:51;22.88;;;3.08;;
66485;SDS011;53303;47.476;8.084;2024-03-25T05:14:17;17.42;;;2.38;;
66485;SDS011;53303;47.476;8.084;2024-03-25T05:16:42;16.98;;;1.70;;
66485;SDS011;53303;47.476;8.084;2024-03-25T05:19:07;17.48;;;2.33;;
66485;SDS011;53303;47.476;8.084;2024-03-25T05:21:33;10.43;;;2.42;;
66485;SDS011;53303;47.476;8.084;2024-03-25T05:23:58;14.30;;;1.92;;
66485;SDS011;53303;47.476;8.084;2024-03-25T05:26:24;11.95;;;1.75;;
66485;SDS011;53303;47.476;8.084;2024-03-25T05:28:53;11.20;;;2.13;;
66485;SDS011;53303;47.476;8.084;2024-03-25T05:31:19;12.80;;;1.90;;
66485;SDS011;53303;47.476;8.084;2024-03-25T05:33:45;17.75;;;1.92;;
66485;SDS011;53303;47.476;8.084;2024-03-25T05:36:10;15.02;;;1.60;;
66485;SDS011;53303;47.476;8.084;2024-03-25T05:38:35;13.82;;;1.63;;
66485;SDS011;53303;47.476;8.084;2024-03-25T05:41:01;12.52;;;1.50;;
66485;SDS011;53303;47.476;8.084;2024-03-25T05:43:26;12.82;;;1.42;;
66485;SDS011;53303;47.476;8.084;2024-03-25T05:45:55;11.32;;;1.80;;
66485;SDS011;53303;47.476;8.084;2024-03-25T05:48:22;10.95;;;1.60;;
66485;SDS011;53303;47.476;8.084;2024-03-25T05:51:02;7.25;;;2.03;;
66485;SDS011;53303;47.476;8.084;2024-03-25T05:53:30;12.02;;;1.70;;
66485;SDS011;53303;47.476;8.084;2024-03-25T05:55:56;14.50;;;2.25;;
66485;SDS011;53303;47.476;8.084;2024-03-25T05:58:21;11.38;;;1.80;;
66485;SDS011;53303;47.476;8.084;2024-03-25T06:00:47;14.70;;;2.55;;
66485;SDS011;53303;47.476;8.084;2024-03-25T06:03:16;12.38;;;1.80;;
66485;SDS011;53303;47.476;8.084;2024-03-25T06:05:45;13.10;;;1.65;;
66485;SDS011;53303;47.476;8.084;2024-03-25T06:08:11;12.75;;;1.60;;
66485;SDS011;53303;47.476;8.084;2024-03-25T06:11:00;9.27;;;1.50;;
66485;SDS011;53303;47.476;8.084;2024-03-25T06:13:26;12.93;;;1.80;;
66485;SDS011;53303;47.476;8.084;2024-03-25T06:15:52;13.02;;;1.63;;
66485;SDS011;53303;47.476;8.084;2024-03-25T06:18:17;10.38;;;1.77;;
66485;SDS011;53303;47.476;8.084;2024-03-25T06:20:43;11.27;;;1.42;;
66485;SDS011;53303;47.476;8.084;2024-03-25T06:23:08;12.23;;;1.58;;
66485;SDS011;53303;47.476;8.084;2024-03-25T06:25:33;11.60;;;2.33;;
66485;SDS011;53303;47.476;8.084;2024-03-25T06:28:00;8.23;;;1.73;;
66485;SDS011;53303;47.476;8.084;2024-03-25T06:30:26;8.00;;;1.50;;
66485;SDS011;53303;47.476;8.084;2024-03-25T06:33:09;12.30;;;1.85;;
66485;SDS011;53303;47.476;8.084;2024-03-25T06:35:53;10.13;;;1.42;;
66485;SDS011;53303;47.476;8.084;2024-03-25T06:38:19;13.15;;;1.67;;
66485;SDS011;53303;47.476;8.084;2024-03-25T06:40:45;13.95;;;1.75;;
66485;SDS011;53303;47.476;8.084;2024-03-25T06:43:15;15.75;;;2.10;;
66485;SDS011;53303;47.476;8.084;2024-03-25T06:45:41;8.13;;;1.52;;
66485;SDS011;53303;47.476;8.084;2024-03-25T06:48:09;9.57;;;1.30;;
66485;SDS011;53303;47.476;8.084;2024-03-25T06:50:35;10.10;;;1.40;;
66485;SDS011;53303;47.476;8.084;2024-03-25T06:53:01;9.60;;;1.50;;
66485;SDS011;53303;47.476;8.084;2024-03-25T06:55:27;9.23;;;1.83;;
66485;SDS011;53303;47.476;8.084;2024-03-25T06:57:53;11.48;;;2.05;;
66485;SDS011;53303;47.476;8.084;2024-03-25T07:00:26;9.82;;;1.42;;
66485;SDS011;53303;47.476;8.084;2024-03-25T07:02:52;9.73;;;1.52;;
66485;SDS011;53303;47.476;8.084;2024-03-25T07:05:17;7.22;;;1.48;;
66485;SDS011;53303;47.476;8.084;2024-03-25T07:07:42;15.95;;;1.67;;
66485;SDS011;53303;47.476;8.084;2024-03-25T07:10:08;11.43;;;1.98;;
66485;SDS011;53303;47.476;8.084;2024-03-25T07:12:33;8.20;;;1.73;;
66485;SDS011;53303;47.476;8.084;2024-03-25T07:14:59;9.77;;;1.60;;
66485;SDS011;53303;47.476;8.084;2024-03-25T07:17:24;7.78;;;1.45;;
66485;SDS011;53303;47.476;8.084;2024-03-25T07:19:50;8.23;;;1.92;;
66485;SDS011;53303;47.476;8.084;2024-03-25T07:22:16;8.35;;;1.20;;
66485;SDS011;53303;47.476;8.084;2024-03-25T07:24:42;7.93;;;1.58;;
66485;SDS011;53303;47.476;8.084;2024-03-25T07:27:12;8.95;;;1.52;;
66485;SDS011;53303;47.476;8.084;2024-03-25T07:29:37;7.10;;;1.55;;
66485;SDS011;53303;47.476;8.084;2024-03-25T07:32:03;9.05;;;1.88;;
66485;SDS011;53303;47.476;8.084;2024-03-25T07:34:29;10.68;;;1.60;;
66485;SDS011;53303;47.476;8.084;2024-03-25T07:36:55;4.38;;;1.20;;
66485;SDS011;53303;47.476;8.084;2024-03-25T07:39:20;8.52;;;1.67;;
66485;SDS011;53303;47.476;8.084;2024-03-25T07:41:49;9.38;;;1.55;;
66485;SDS011;53303;47.476;8.084;2024-03-25T07:44:16;7.68;;;1.40;;
66485;SDS011;53303;47.476;8.084;2024-03-25T07:46:44;9.10;;;1.52;;
66485;SDS011;53303;47.476;8.084;2024-03-25T07:49:10;5.72;;;1.45;;
66485;SDS011;53303;47.476;8.084;2024-03-25T07:51:35;8.10;;;1.50;;
66485;SDS011;53303;47.476;8.084;2024-03-25T07:54:01;6.57;;;1.33;;
66485;SDS011;53303;47.476;8.084;2024-03-25T07:56:28;6.90;;;1.05;;
66485;SDS011;53303;47.476;8.084;2024-03-25T07:58:54;6.78;;;1.10;;
66485;SDS011;53303;47.476;8.084;2024-03-25T08:01:19;5.35;;;1.40;;
66485;SDS011;53303;47.476;8.084;2024-03-25T08:03:47;6.53;;;1.23;;
66485;SDS011;53303;47.476;8.084;2024-03-25T08:06:13;7.45;;;1.58;;
66485;SDS011;53303;47.476;8.084;2024-03-25T08:08:38;5.22;;;1.40;;
66485;SDS011;53303;47.476;8.084;2024-03-25T08:11:03;8.02;;;1.35;;
66485;SDS011;53303;47.476;8.084;2024-03-25T08:13:31;5.10;;;0.90;;
66485;SDS011;53303;47.476;8.084;2024-03-25T08:15:56;7.45;;;1.60;;
66485;SDS011;53303;47.476;8.084;2024-03-25T08:18:22;4.60;;;1.10;;
66485;SDS011;53303;47.476;8.084;2024-03-25T08:20:49;5.95;;;1.00;;
66485;SDS011;53303;47.476;8.084;2024-03-25T08:23:15;8.13;;;1.33;;
66485;SDS011;53303;47.476;8.084;2024-03-25T08:25:40;4.97;;;1.40;;
66485;SDS011;53303;47.476;8.084;2024-03-25T08:28:08;3.75;;;1.10;;
66485;SDS011;53303;47.476;8.084;2024-03-25T08:30:33;7.05;;;1.50;;
66485;SDS011;53303;47.476;8.084;2024-03-25T08:33:01;4.57;;;1.20;;
66485;SDS011;53303;47.476;8.084;2024-03-25T08:35:26;7.10;;;2.25;;
66485;SDS011;53303;47.476;8.084;2024-03-25T08:37:52;4.95;;;0.90;;
66485;SDS011;53303;47.476;8.084;2024-03-25T08:40:17;4.72;;;1.27;;
66485;SDS011;53303;47.476;8.084;2024-03-25T08:42:44;5.15;;;1.25;;
66485;SDS011;53303;47.476;8.084;2024-03-25T08:45:10;4.38;;;0.95;;
66485;SDS011;53303;47.476;8.084;2024-03-25T08:47:35;5.05;;;1.30;;
66485;SDS011;53303;47.476;8.084;2024-03-25T08:50:03;6.72;;;1.38;;
66485;SDS011;53303;47.476;8.084;2024-03-25T08:52:30;4.20;;;0.90;;
66485;SDS011;53303;47.476;8.084;2024-03-25T08:54:58;4.30;;;0.90;;
66485;SDS011;53303;47.476;8.084;2024-03-25T08:57:23;5.13;;;1.23;;
66485;SDS011;53303;47.476;8.084;2024-03-25T08:59:51;4.63;;;1.35;;
66485;SDS011;53303;47.476;8.084;2024-03-25T09:02:19;6.72;;;1.35;;
66485;SDS011;53303;47.476;8.084;2024-03-25T09:04:44;3.85;;;1.23;;
66485;SDS011;53303;47.476;8.084;2024-03-25T09:07:10;5.88;;;1.10;;
66485;SDS011;53303;47.476;8.084;2024-03-25T09:09:35;4.60;;;1.20;;
66485;SDS011;53303;47.476;8.084;2024-03-25T09:12:19;7.85;;;1.40;;
66485;SDS011;53303;47.476;8.084;2024-03-25T09:14:47;5.13;;;1.05;;
66485;SDS011;53303;47.476;8.084;2024-03-25T09:17:12;4.63;;;1.15;;
66485;SDS011;53303;47.476;8.084;2024-03-25T09:19:38;5.07;;;1.00;;
66485;SDS011;53303;47.476;8.084;2024-03-25T09:22:04;6.00;;;1.25;;
66485;SDS011;53303;47.476;8.084;2024-03-25T09:24:30;2.72;;;1.10;;
66485;SDS011;53303;47.476;8.084;2024-03-25T09:26:55;5.10;;;1.40;;
66485;SDS011;53303;47.476;8.084;2024-03-25T09:29:23;2.92;;;1.15;;
66485;SDS011;53303;47.476;8.084;2024-03-25T09:31:48;5.35;;;0.98;;
66485;SDS011;53303;47.476;8.084;2024-03-25T09:34:13;3.40;;;1.30;;
66485;SDS011;53303;47.476;8.084;2024-03-25T09:36:39;3.72;;;1.00;;
66485;SDS011;53303;47.476;8.084;2024-03-25T09:39:05;6.18;;;1.20;;
66485;SDS011;53303;47.476;8.084;2024-03-25T09:41:34;2.33;;;0.65;;
66485;SDS011;53303;47.476;8.084;2024-03-25T09:44:01;2.13;;;1.10;;
66485;SDS011;53303;47.476;8.084;2024-03-25T09:46:34;7.18;;;1.13;;
66485;SDS011;53303;47.476;8.084;2024-03-25T09:49:01;3.33;;;0.80;;
66485;SDS011;53303;47.476;8.084;2024-03-25T09:51:30;4.40;;;1.25;;
66485;SDS011;53303;47.476;8.084;2024-03-25T09:53:56;3.28;;;1.20;;
66485;SDS011;53303;47.476;8.084;2024-03-25T09:56:22;3.50;;;1.15;;
66485;SDS011;53303;47.476;8.084;2024-03-25T09:58:49;3.47;;;1.00;;
66485;SDS011;53303;47.476;8.084;2024-03-25T10:01:20;4.20;;;1.15;;
66485;SDS011;53303;47.476;8.084;2024-03-25T10:03:48;2.13;;;1.08;;
66485;SDS011;53303;47.476;8.084;2024-03-25T10:06:16;5.03;;;1.52;;
66485;SDS011;53303;47.476;8.084;2024-03-25T10:08:42;5.38;;;1.10;;
66485;SDS011;53303;47.476;8.084;2024-03-25T10:11:07;2.22;;;0.73;;
66485;SDS011;53303;47.476;8.084;2024-03-25T10:13:33;4.22;;;1.00;;
66485;SDS011;53303;47.476;8.084;2024-03-25T10:16:00;3.90;;;0.93;;
66485;SDS011;53303;47.476;8.084;2024-03-25T10:18:28;2.15;;;0.70;;
66485;SDS011;53303;47.476;8.084;2024-03-25T10:20:53;6.95;;;1.23;;
66485;SDS011;53303;47.476;8.084;2024-03-25T10:23:29;3.65;;;1.25;;
66485;SDS011;53303;47.476;8.084;2024-03-25T10:26:00;5.85;;;1.30;;
66485;SDS011;53303;47.476;8.084;2024-03-25T10:28:25;3.72;;;1.05;;
66485;SDS011;53303;47.476;8.084;2024-03-25T10:30:53;4.30;;;1.02;;
66485;SDS011;53303;47.476;8.084;2024-03-25T10:33:27;3.90;;;1.20;;
66485;SDS011;53303;47.476;8.084;2024-03-25T10:35:55;4.13;;;1.10;;
66485;SDS011;53303;47.476;8.084;2024-03-25T10:38:26;4.85;;;1.00;;
66485;SDS011;53303;47.476;8.084;2024-03-25T10:40:53;7.60;;;1.00;;
66485;SDS011;53303;47.476;8.084;2024-03-25T10:43:22;4.70;;;1.35;;
66485;SDS011;53303;47.476;8.084;2024-03-25T10:45:52;6.85;;;1.02;;
66485;SDS011;53303;47.476;8.084;2024-03-25T10:48:39;6.45;;;1.00;;
66485;SDS011;53303;47.476;8.084;2024-03-25T10:51:09;6.05;;;1.10;;
66485;SDS011;53303;47.476;8.084;2024-03-25T10:53:38;7.00;;;1.45;;
66485;SDS011;53303;47.476;8.084;2024-03-25T10:56:04;7.63;;;1.35;;
66485;SDS011;53303;47.476;8.084;2024-03-25T10:58:30;5.07;;;1.45;;
66485;SDS011;53303;47.476;8.084;2024-03-25T11:00:56;6.07;;;1.45;;
66485;SDS011;53303;47.476;8.084;2024-03-25T11:03:23;5.50;;;1.45;;
66485;SDS011;53303;47.476;8.084;2024-03-25T11:05:52;4.28;;;1.10;;
66485;SDS011;53303;47.476;8.084;2024-03-25T11:08:18;3.63;;;1.25;;
66485;SDS011;53303;47.476;8.084;2024-03-25T11:10:44;6.18;;;1.15;;
66485;SDS011;53303;47.476;8.084;2024-03-25T11:13:14;6.85;;;1.10;;
66485;SDS011;53303;47.476;8.084;2024-03-25T11:15:42;5.70;;;0.95;;
66485;SDS011;53303;47.476;8.084;2024-03-25T11:18:12;7.35;;;1.25;;
66485;SDS011;53303;47.476;8.084;2024-03-25T11:20:38;4.85;;;1.20;;
66485;SDS011;53303;47.476;8.084;2024-03-25T11:23:10;5.57;;;1.00;;
66485;SDS011;53303;47.476;8.084;2024-03-25T11:25:39;4.57;;;1.10;;
66485;SDS011;53303;47.476;8.084;2024-03-25T11:28:06;2.22;;;1.00;;
66485;SDS011;53303;47.476;8.084;2024-03-25T11:30:32;5.03;;;1.25;;
66485;SDS011;53303;47.476;8.084;2024-03-25T11:32:58;4.80;;;1.48;;
66485;SDS011;53303;47.476;8.084;2024-03-25T11:35:26;4.68;;;1.20;;
66485;SDS011;53303;47.476;8.084;2024-03-25T11:37:52;6.00;;;1.00;;
66485;SDS011;53303;47.476;8.084;2024-03-25T11:40:18;3.35;;;1.13;;
66485;SDS011;53303;47.476;8.084;2024-03-25T11:42:48;4.55;;;1.00;;
66485;SDS011;53303;47.476;8.084;2024-03-25T11:45:17;4.10;;;1.08;;
66485;SDS011;53303;47.476;8.084;2024-03-25T11:47:48;6.82;;;1.45;;
66485;SDS011;53303;47.476;8.084;2024-03-25T11:50:17;5.60;;;1.17;;
66485;SDS011;53303;47.476;8.084;2024-03-25T11:52:44;5.15;;;1.05;;
66485;SDS011;53303;47.476;8.084;2024-03-25T11:55:11;4.03;;;1.08;;
66485;SDS011;53303;47.476;8.084;2024-03-25T11:57:44;4.68;;;1.25;;
66485;SDS011;53303;47.476;8.084;2024-03-25T12:00:13;4.13;;;0.90;;
66485;SDS011;53303;47.476;8.084;2024-03-25T12:02:43;2.92;;;0.90;;
66485;SDS011;53303;47.476;8.084;2024-03-25T12:05:14;5.25;;;1.00;;
66485;SDS011;53303;47.476;8.084;2024-03-25T12:07:42;4.80;;;1.10;;
66485;SDS011;53303;47.476;8.084;2024-03-25T12:10:09;2.30;;;0.90;;
66485;SDS011;53303;47.476;8.084;2024-03-25T12:12:54;3.22;;;0.93;;
66485;SDS011;53303;47.476;8.084;2024-03-25T12:15:20;4.40;;;1.10;;
66485;SDS011;53303;47.476;8.084;2024-03-25T12:17:46;3.45;;;0.88;;
66485;SDS011;53303;47.476;8.084;2024-03-25T12:20:16;1.98;;;1.00;;
66485;SDS011;53303;47.476;8.084;2024-03-25T12:22:42;2.50;;;0.88;;
66485;SDS011;53303;47.476;8.084;2024-03-25T12:25:09;2.63;;;1.00;;
66485;SDS011;53303;47.476;8.084;2024-03-25T12:27:35;5.45;;;1.42;;
66485;SDS011;53303;47.476;8.084;2024-03-25T12:30:05;4.43;;;1.23;;
66485;SDS011;53303;47.476;8.084;2024-03-25T12:35:06;2.63;;;0.98;;
66485;SDS011;53303;47.476;8.084;2024-03-25T12:37:32;2.40;;;1.20;;
66485;SDS011;53303;47.476;8.084;2024-03-25T12:39:58;2.92;;;0.90;;
66485;SDS011;53303;47.476;8.084;2024-03-25T12:42:24;2.35;;;1.00;;
66485;SDS011;53303;47.476;8.084;2024-03-25T12:44:55;4.68;;;1.40;;
66485;SDS011;53303;47.476;8.084;2024-03-25T12:47:22;4.90;;;1.00;;
66485;SDS011;53303;47.476;8.084;2024-03-25T12:49:48;3.42;;;1.20;;
66485;SDS011;53303;47.476;8.084;2024-03-25T12:52:13;4.35;;;1.08;;
66485;SDS011;53303;47.476;8.084;2024-03-25T12:54:39;3.13;;;0.95;;
66485;SDS011;53303;47.476;8.084;2024-03-25T12:57:06;2.47;;;1.05;;
66485;SDS011;53303;47.476;8.084;2024-03-25T12:59:34;4.43;;;1.35;;
66485;SDS011;53303;47.476;8.084;2024-03-25T13:02:00;4.95;;;1.23;;
66485;SDS011;53303;47.476;8.084;2024-03-25T13:04:28;3.67;;;1.13;;
66485;SDS011;53303;47.476;8.084;2024-03-25T13:06:56;2.97;;;1.20;;
66485;SDS011;53303;47.476;8.084;2024-03-25T13:09:21;2.95;;;0.90;;
66485;SDS011;53303;47.476;8.084;2024-03-25T13:11:47;4.10;;;1.10;;
66485;SDS011;53303;47.476;8.084;2024-03-25T13:14:12;5.03;;;0.98;;
66485;SDS011;53303;47.476;8.084;2024-03-25T13:16:38;6.57;;;0.90;;
66485;SDS011;53303;47.476;8.084;2024-03-25T13:19:04;4.78;;;0.90;;
66485;SDS011;53303;47.476;8.084;2024-03-25T13:21:30;4.90;;;1.60;;
66485;SDS011;53303;47.476;8.084;2024-03-25T13:23:58;8.32;;;1.23;;
66485;SDS011;53303;47.476;8.084;2024-03-25T13:26:24;6.35;;;1.40;;
66485;SDS011;53303;47.476;8.084;2024-03-25T13:28:50;6.10;;;1.25;;
66485;SDS011;53303;47.476;8.084;2024-03-25T13:31:16;4.30;;;1.23;;
66485;SDS011;53303;47.476;8.084;2024-03-25T13:33:41;5.18;;;0.80;;
66485;SDS011;53303;47.476;8.084;2024-03-25T13:36:07;5.55;;;1.17;;
66485;SDS011;53303;47.476;8.084;2024-03-25T13:38:33;5.25;;;1.05;;
66485;SDS011;53303;47.476;8.084;2024-03-25T13:41:01;3.67;;;1.10;;
66485;SDS011;53303;47.476;8.084;2024-03-25T13:43:27;3.35;;;1.13;;
66485;SDS011;53303;47.476;8.084;2024-03-25T13:45:53;4.10;;;0.80;;
66485;SDS011;53303;47.476;8.084;2024-03-25T13:48:18;4.55;;;1.02;;
66485;SDS011;53303;47.476;8.084;2024-03-25T13:50:46;5.25;;;1.20;;
66485;SDS011;53303;47.476;8.084;2024-03-25T13:53:11;6.65;;;1.48;;
66485;SDS011;53303;47.476;8.084;2024-03-25T13:55:40;5.47;;;1.25;;
66485;SDS011;53303;47.476;8.084;2024-03-25T13:58:07;3.38;;;1.20;;
66485;SDS011;53303;47.476;8.084;2024-03-25T14:00:36;4.53;;;1.08;;
66485;SDS011;53303;47.476;8.084;2024-03-25T14:03:01;5.57;;;1.20;;
66485;SDS011;53303;47.476;8.084;2024-03-25T14:05:28;4.05;;;1.02;;
66485;SDS011;53303;47.476;8.084;2024-03-25T14:07:53;3.88;;;0.90;;
66485;SDS011;53303;47.476;8.084;2024-03-25T14:10:19;4.15;;;1.00;;
66485;SDS011;53303;47.476;8.084;2024-03-25T14:12:44;3.78;;;1.25;;
66485;SDS011;53303;47.476;8.084;2024-03-25T14:15:10;4.30;;;1.10;;
66485;SDS011;53303;47.476;8.084;2024-03-25T14:17:36;3.55;;;1.15;;
66485;SDS011;53303;47.476;8.084;2024-03-25T14:20:03;4.65;;;1.00;;
66485;SDS011;53303;47.476;8.084;2024-03-25T14:22:33;3.22;;;1.10;;
66485;SDS011;53303;47.476;8.084;2024-03-25T14:24:59;2.05;;;0.90;;
66485;SDS011;53303;47.476;8.084;2024-03-25T14:27:24;4.78;;;1.10;;
66485;SDS011;53303;47.476;8.084;2024-03-25T14:29:55;3.90;;;1.17;;
66485;SDS011;53303;47.476;8.084;2024-03-25T14:32:21;2.97;;;0.90;;
66485;SDS011;53303;47.476;8.084;2024-03-25T14:34:47;4.88;;;1.08;;
66485;SDS011;53303;47.476;8.084;2024-03-25T14:37:16;3.75;;;1.20;;
66485;SDS011;53303;47.476;8.084;2024-03-25T14:39:44;2.25;;;0.80;;
66485;SDS011;53303;47.476;8.084;2024-03-25T14:42:10;2.80;;;1.23;;
66485;SDS011;53303;47.476;8.084;2024-03-25T14:44:38;4.70;;;1.10;;
66485;SDS011;53303;47.476;8.084;2024-03-25T14:47:04;3.95;;;1.00;;
66485;SDS011;53303;47.476;8.084;2024-03-25T14:49:29;2.78;;;0.98;;